Point Sur, California
Current Conditions -  °F | °C
As of 8:54 AM on Friday 28 Nov 2014 (Local Time) from KMRY Reporting Station
Clear Clear  
Wind Chill: 51°   Ceiling: Unl
Heat Index: 51°   Visibility: 10mi
Dew Point: 41°   Wind: 5mph
Humidity: 68%   Direction: 270°W
Pressure: 30.05"   Gusts: NA
Location:  36.5816°N, 121.843°W
Report Text: KMRY 281654Z 27004KT 10SM CLR 11/05 A3005 RMK AO2 SLP188 T01060050
Loading
Personal Weather Stations






























Interactive Weather Map New forecast layout! Learn more

10-Day Weather Forecast

Advertisements
Track Severe Weather on mobile